ProRodeoTv.Com
Red

PRCA Stock Statistics

SEARCH BY:
Stock Rodeo Contestant Stock Contractor

Tanner Learmont

EVENT:
Unofficial results reflect placement at time of Web posting and can change.

SEASON BREAKDOWN

Season Attempts Qual Rides Re-rides Ride %
2017 51 20 0 39.22 %
2016 30 11 0 36.67 %
2015 99 29 0 29.29 %
2014 48 15 0 31.25 %
2013 12 4 0 33.33 %
2012 8 0 0 0.00 %
Totals 248 79 0 0.00 %

RODEO DETAIL

Date Location Rodeo SC Brand Ride Comments Stock Score Contestant Score
7/6/2017 Elgin, OR Elgin Stampede BI 23 0.00 17.00 / 20.00 0.00 / 0.00
7/3/2017 Oakley City, UT Oakley Independence Day Rodeo BT 132 83.00 22.00 / 19.00 23.00 / 19.00
7/2/2017 Red Lodge, MT Home Of Champions Rodeo BR 31 81.00 21.00 / 19.00 21.00 / 20.00
6/26/2017 Greeley, CO Greeley Stampede Xtreme Bulls BU 265 0.00 19.00 / 20.00 0.00 / 0.00
6/20/2017 Reno, NV Reno Rodeo RO 2108 0.00 17.00 / 20.00 0.00 / 0.00
6/16/2017 Crosby, TX Crosby Fair & Rodeo HL 90 87.50 21.50 / 22.00 22.00 / 22.00
6/10/2017 Atoka, OK Atoka Trail Riders Xtreme Bulls PK 2932 83.50 21.50 / 21.00 21.00 / 20.00
6/10/2017 Livermore, CA Livermore Rodeo TB 233 78.50 19.50 / 19.00 21.00 / 19.00
6/8/2017 Weatherford, TX Parker County Sheriffs Posse Frontier Days And PRCA Rodeo LJ 215 83.50 20.50 / 20.50 21.50 / 21.00
6/7/2017 Gladewater, TX Gladewater Round-Up Xtreme Bulls UP 64 0.00 23.00 / 23.50 0.00 / 0.00
6/6/2017 Weatherford, TX Parker County Sheriff s Posse Xtreme Bulls UR 2040 0.00 22.00 / 22.50 0.00 / 0.00
6/3/2017 Spanish Fork, UT Spanish Fork Champions Challenge PR 34A 0.00 21.00 / 21.00 0.00 / 0.00
6/2/2017 Elizabeth, CO Elizabeth Stampede Xtreme Bulls SM 36 0.00 20.50 / 21.00 0.00 / 0.00
5/31/2017 Santa Maria, CA Santa Maria Elks Rodeo & Parade ST 94Z 0.00 22.50 / 23.50 0.00 / 0.00
5/20/2017 Jacksonville, TX Tops In Texas Rodeo LJ 134 0.00 20.00 / 19.00 0.00 / 0.00
5/19/2017 Perkins, OK Two Hands Memorial Rodeo DK 112X 0.00 21.00 / 21.50 0.00 / 0.00
5/13/2017 Bridgeport, TX Butterfield Stage Days PRCA Rodeo LJ J3 0.00 22.00 / 23.00 0.00 / 0.00
5/12/2017 Crockett, TX Crockett Lions Club PRCA Rodeo AN 60 75.50 18.50 / 19.00 19.00 / 19.00
5/10/2017 Las Vegas, NV Helldorado Days Rodeo FU 33/2 0.00 14.00 / 16.50 0.00 / 0.00
5/6/2017 Guymon, OK Guymon Pioneer Days Rodeo LJ J304 0.00 21.50 / 23.00 0.00 / 0.00
5/5/2017 Carthage, TX Panola County Cattlemen s Rodeo HL 47 0.00 21.00 / 20.50 0.00 / 0.00
4/30/2017 Corpus Christi, TX Rodeo Corpus Christi FR 172 79.50 19.50 / 19.00 21.00 / 20.00
4/28/2017 Jourdanton, TX Ropin Dreams Cowboy Fellowship PRCA Rodeo UP 222 69.00 17.00 / 17.00 17.00 / 18.00
4/27/2017 Wharton, TX Wharton County Youth Fair - Xtreme Bulls UN 816 0.00 21.50 / 21.00 0.00 / 0.00
4/26/2017 Lufkin, TX Angelina County Benefit Rodeo SS 21 70.00 15.00 / 18.50 17.00 / 19.50
Page of 3
Per Page
 
 
 
Copyright © 2017 Professional Rodeo Cowboys Association. All rights reserved. No portion of ProRodeo.com may be duplicated, redistributed or manipulated in any form. By accessing any information beyond this page, you agree to abide by the Terms of Use.
PRCA Wrangler National Finals Rodeo Wrangler Champions Challenge Justin Boots Playoffs Xtreme Bulls RAM National Circuit Finals Rodeo ProRodeo Gear ProRodeoTv.com var gaJsHost = (("https:" == document.location.protocol) ? "https://ssl." : "http://www."); document.write(unescape("%3Cscript src='" + gaJsHost + "google-analytics.com/ga.js' type='text/javascript'%3E%3C/script%3E"));